Carleton Place, Canada
Current Conditions -  °F | °C
As of 1:00 PM on Thursday 30 Oct 2014 (Local Time) from CYOW Reporting Station
Broken Clouds Broken Clouds  
Wind Chill: 36°   Ceiling: 3400
Heat Index: 43°   Visibility: 15mi
Dew Point: 30°   Wind: 13mph
Humidity: 61%   Direction: 280°W
Pressure: 30.01"   Gusts: NA
Location:  45.13°N, 76.13°W
Report Text: CYOW 301700Z 28011KT 15SM BKN034 06/M01 A3001 RMK SC7 SLP167
Loading
Personal Weather Stations






























Interactive Weather Map
Tropical Storm Tracking
New forecast layout! Learn more

10-Day Weather Forecast

Advertisements
Track Severe Weather on mobile